X  Zamknij Lotniskowe dane METAR     LGRX Patras Araxos Agamemnon Airport
Temperatura
9°C Temperatura
-3°C Punkt rosy
43% Wilgotność



Wiatr
4 M/S
10 MPH
16 KM/H
9 KTS



80°
E
Warunki bieżące

Częściowe zachmurzenie Częściowe zachmurzenie
Ciśnienie 1029.92 (hPa) - 30.41 (inHg)
Widoczność 6.2 (mil) - 10 (km)
Lotnisko
Kod lotniska LGRX

Położenie: Patras Araxos Agamemnon Airport
Odległość: 108 (km)

Metar:
LGRX 081020Z 08009KT 9999 FEW018 BKN070 09/M03 Q1030

Czas: 08-02-2023 10:20 EET